Latest Coastal Weather Observations for Samuel Hill

IDQ60701

Issued at 6:32 pm EST Tuesday 27 September 2016 (issued every 10 minutes, with the page automatically refreshed every 10 minutes)

About coastal observations | Map of coastal stations | Coastal observations for QLD | Marine services | Other Formats
Station Details ID: 033308 Name: SAMUEL HILL AERO Lat: -22.74 Lon: 150.66 Height: 31.0 m
Data from the previous 72 hours. | See also: Recent months at Samuel Hill
Date/Time
EST
Temp
°C
Wind Pressure Rain since
9am
mm
Weather Cloud Vis
km
Sea
Height
m
Swell
Dir  Spd
kts
Gust
kts
hPa Trend Height
m
Period
s
Dir
27/06:30pm 20.2 CALM 0 0 1013.7 - 0.0 - - 10 - - - -
27/06:00pm 21.6 CALM 0 0 1013.1 - 0.0 - Partly cloudy 10 - - - -
27/05:30pm 22.6 ENE 3 5 1012.7 - 0.0 - Partly cloudy 10 - - - -
27/05:00pm 23.7 E 5 7 1012.5 - 0.0 - - 10 - - - -
27/04:30pm 25.3 ESE 5 10 1012.1 - 0.0 - - 10 - - - -
27/04:00pm 25.7 SSE 5 7 1011.9 - 0.0 - - 10 - - - -
27/03:30pm 26.2 SSE 7 12 1011.9 - 0.0 - - 10 - - - -
27/03:00pm 26.6 SE 7 10 1011.9 - 0.0 - - 10 - - - -
27/02:30pm 26.9 SE 6 10 1012.0 - 0.0 - - 10 - - - -
27/02:00pm 26.7 SE 8 12 1012.3 - 0.0 - - 10 - - - -
27/01:30pm 26.6 ESE 7 11 1012.5 - 0.0 - - 10 - - - -
27/01:00pm 26.0 ESE 9 13 1013.3 - 0.0 - - 10 - - - -
27/12:30pm 26.5 ESE 8 12 1013.5 - 0.0 - - 10 - - - -
27/12:00pm 26.8 SSE 7 10 1014.3 - 0.0 - - 10 - - - -
27/11:30am 26.2 SE 7 12 1014.8 - 0.0 - - 10 - - - -
27/11:00am 25.8 SE 9 13 1015.0 - 0.0 - - 10 - - - -
27/10:30am 26.0 S 6 11 1015.5 - 0.0 - - 10 - - - -
27/10:00am 25.4 S 7 11 1015.6 - 0.0 - Partly cloudy 10 - - - -
27/09:30am 24.7 SSW 5 9 1015.9 - 0.0 - - 10 - - - -
27/09:00am 23.6 WSW 5 9 1015.8 - 0.0 - - 10 - - - -
27/08:30am 23.0 WSW 7 10 1015.9 - 0.0 - - 10 - - - -
27/08:00am 21.9 W 4 6 1015.5 - 0.0 - - 10 - - - -
27/07:30am 20.1 WSW 3 6 1015.2 - 0.0 - - 10 - - - -
27/07:00am 18.2 CALM 0 3 1014.8 - 0.0 - - 10 - - - -
27/06:30am 15.7 WSW 4 6 1014.5 - 0.0 - - 10 - - - -
27/06:00am 13.2 S 1 4 1014.2 - 0.0 - - 10 - - - -
27/05:30am 13.1 SSW 2 5 1013.7 - 0.0 - - 10 - - - -
27/05:00am 12.8 CALM 0 0 1013.2 - 0.0 - - 10 - - - -
27/04:30am 13.0 CALM 0 0 1012.8 - 0.0 - - 10 - - - -
27/04:00am 13.3 CALM 0 0 1012.5 - 0.0 - - 10 - - - -
27/03:30am 13.4 CALM 0 0 1012.4 - 0.0 - - 10 - - - -
27/03:00am 13.6 CALM 0 0 1012.4 - 0.0 - - 10 - - - -
27/02:30am 13.3 CALM 0 0 1012.4 - 0.0 - - 10 - - - -
27/02:00am 13.9 CALM 0 0 1012.9 - 0.0 - - 10 - - - -
27/01:30am 14.0 CALM 0 0 1013.1 - 0.0 - - 10 - - - -
27/01:00am 13.9 NE 1 4 1013.4 - 0.0 - - 10 - - - -
27/12:30am 13.6 CALM 0 0 1013.7 - 0.0 - - 10 - - - -
27/12:00am 13.3 CALM 0 0 1013.7 - 0.0 - - 10 - - - -
 
Date/Time
EST
Temp
°C
Wind Pressure Rain since
9am
mm
Weather Cloud Vis
km
Sea
Height
m
Swell
Dir  Spd
kts
Gust
kts
hPa Trend Height
m
Period
s
Dir
26/11:30pm 14.0 CALM 0 0 1013.7 - 0.0 - - 10 - - - -
26/11:00pm 13.9 CALM 0 0 1013.5 - 0.0 - - 10 - - - -
26/10:30pm 14.1 CALM 0 0 1013.6 - 0.0 - - 10 - - - -
26/10:00pm 14.7 CALM 0 0 1013.6 - 0.0 - - 10 - - - -
26/09:30pm 15.2 CALM 0 0 1013.6 - 0.0 - - 10 - - - -
26/09:00pm 15.2 NNW 3 4 1013.5 - 0.0 - - 10 - - - -
26/08:30pm 16.1 NW 2 4 1013.4 - 0.0 - - 10 - - - -
26/08:00pm 16.1 CALM 0 0 1013.1 - 0.0 - - 10 - - - -
26/07:30pm 17.0 CALM 0 0 1013.1 - 0.0 - - 10 - - - -
26/07:00pm 18.0 NNE 1 4 1012.8 - 0.0 - - 10 - - - -
26/06:30pm 19.3 NE 3 4 1012.5 - 0.0 - - 10 - - - -
26/06:00pm 20.8 NNE 5 6 1012.2 - 0.0 - - 10 - - - -
26/05:30pm 22.9 NE 3 5 1011.7 - 0.0 - - 10 - - - -
26/05:00pm 23.8 NE 5 7 1011.3 - 0.0 - - 10 - - - -
26/04:30pm 24.4 NE 7 11 1011.2 - 0.0 - - 10 - - - -
26/04:00pm 25.2 ENE 7 11 1010.8 - 0.0 - - 10 - - - -
26/03:30pm 25.5 NE 8 12 1010.6 - 0.0 - - 10 - - - -
26/03:00pm 25.8 ENE 9 13 1010.7 - 0.0 - - 10 - - - -
26/02:30pm 25.5 ENE 7 10 1010.8 - 0.0 - - 10 - - - -
26/02:00pm 25.8 SE 8 12 1010.9 - 0.0 - - 10 - - - -
26/01:30pm 26.5 SE 7 12 1011.1 - 0.0 - - 10 - - - -
26/01:00pm 27.2 ESE 8 13 1011.5 - 0.0 - - 10 - - - -
26/12:30pm 26.3 ESE 10 15 1012.1 - 0.0 - - 10 - - - -
26/12:00pm 26.0 E 7 11 1012.6 - 0.0 - - 10 - - - -
26/11:30am 25.8 SE 8 11 1013.1 - 0.0 - - 10 - - - -
26/11:00am 25.9 SE 8 13 1013.6 - 0.0 - - 10 - - - -
26/10:30am 25.5 SSE 8 14 1013.9 - 0.0 - - 10 - - - -
26/10:00am 25.3 SSE 8 13 1014.1 - 0.0 - - 10 - - - -
26/09:30am 24.9 SSE 8 12 1014.3 - 0.0 - - 10 - - - -
26/09:00am 24.7 SSE 9 12 1014.3 - 0.0 - - 10 - - - -
26/08:30am 23.8 SSE 8 13 1014.4 - 0.0 - - 10 - - - -
26/08:00am 22.7 SSE 6 9 1014.1 - 0.0 - - 10 - - - -
26/07:30am 20.8 S 4 6 1014.0 - 0.0 - - 10 - - - -
26/07:00am 20.0 SE 1 4 1013.4 - 0.0 - - 10 - - - -
26/06:30am 18.4 S 3 5 1012.7 - 0.0 - - 10 - - - -
26/06:00am 16.9 SSE 4 6 1012.3 - 0.0 - - 10 - - - -
26/05:44am 16.8 ESE 1 3 1012.1 - 0.0 - - 10 - - - -
26/05:32am 16.8 SE 2 4 1012.0 - 0.0 - - 7 - - - -
26/05:30am 16.9 SE 2 3 1011.9 - 0.0 - - 8 - - - -
26/05:25am 16.9 CALM 0 3 1011.9 - 0.0 - - 10 - - - -
26/05:00am 17.4 CALM 0 0 1011.5 - 0.0 - Partly cloudy 5 - - - -
26/04:30am 18.1 CALM 0 0 1011.1 - 0.0 - Partly cloudy 0.2 - - - -
26/04:26am 18.2 CALM 0 0 1011.1 - 0.0 - Partly cloudy 0.3 - - - -
26/04:00am 19.3 CALM 0 0 1010.6 - 0.0 - Partly cloudy 0.1 - - - -
26/03:30am 18.8 CALM 0 0 1010.4 - 0.0 - Partly cloudy 0.2 - - - -
26/03:00am 19.0 CALM 0 0 1010.3 - 0.0 - Mostly cloudy 0.2 - - - -
26/02:30am 19.6 CALM 0 0 1010.4 - 0.0 - Cloudy 0.1 - - - -
26/02:12am 19.6 CALM 0 0 1010.4 - 0.0 - Partly cloudy 0.6 - - - -
26/02:00am 19.7 CALM 0 0 1010.6 - 0.0 - Partly cloudy 0.3 - - - -
26/01:51am 19.9 CALM 0 0 1010.5 - 0.0 - Partly cloudy 3 - - - -
26/01:49am 20.0 CALM 0 0 1010.5 - 0.0 - Partly cloudy 7 - - - -
26/01:47am 20.0 CALM 0 0 1010.5 - 0.0 - Partly cloudy 9 - - - -
26/01:30am 20.6 CALM 0 0 1010.6 - 0.0 - Partly cloudy 5 - - - -
26/01:17am 20.4 CALM 0 0 1010.6 - 0.0 - Partly cloudy 7 - - - -
26/01:14am 20.5 CALM 0 0 1010.6 - 0.0 - Partly cloudy 9 - - - -
26/01:11am 20.6 CALM 0 0 1010.6 - 0.0 - Partly cloudy 10 - - - -
26/01:00am 20.9 CALM 0 0 1010.6 - 0.0 - Partly cloudy 10 - - - -
26/12:30am 20.9 CALM 0 0 1010.8 - 0.0 - Partly cloudy 9 - - - -
26/12:00am 21.6 CALM 0 0 1011.0 - 0.0 - Mostly cloudy 10 - - - -
 
Date/Time
EST
Temp
°C
Wind Pressure Rain since
9am
mm
Weather Cloud Vis
km
Sea
Height
m
Swell
Dir  Spd
kts
Gust
kts
hPa Trend Height
m
Period
s
Dir
25/11:30pm 21.6 CALM 0 0 1011.1 - 0.0 - Partly cloudy 10 - - - -
25/11:13pm 21.7 NW 1 3 1011.2 - 0.0 - Partly cloudy 10 - - - -
25/11:00pm 22.3 NW 2 4 1011.1 - 0.0 - Partly cloudy 10 - - - -
25/10:30pm 22.6 NW 3 5 1011.0 - 0.0 - - 10 - - - -
25/10:00pm 22.9 NW 5 8 1011.0 - 0.0 - - 10 - - - -
25/09:30pm 23.1 NW 6 9 1010.9 - 0.0 - - 10 - - - -
25/09:00pm 23.2 NW 7 10 1011.0 - 0.0 - Mostly clear 10 - - - -
25/08:30pm 23.3 NW 5 8 1010.8 - 0.0 - Partly cloudy 10 - - - -
25/08:00pm 23.5 NW 8 11 1010.3 - 0.0 - - 10 - - - -
25/07:30pm 23.6 NNW 9 13 1009.8 - 0.0 - - 10 - - - -
25/07:00pm 23.8 NNW 9 14 1009.3 - 0.0 - - 10 - - - -
25/06:30pm 24.0 NNW 10 16 1009.2 - 0.0 - - 10 - - - -
25/06:00pm 24.3 NNW 9 15 1008.7 - 0.0 - Mostly clear 10 - - - -
25/05:30pm 25.0 NNW 9 15 1008.2 - 0.0 - - 10 - - - -
25/05:00pm 26.0 NNW 10 16 1007.6 - 0.0 - - 10 - - - -
25/04:30pm 26.4 NNW 13 20 1007.4 - 0.0 - - 10 - - - -
25/04:00pm 27.0 NNW 12 18 1007.1 - 0.0 - - 10 - - - -
25/03:30pm 27.2 NNW 12 20 1007.2 - 0.0 - - 10 - - - -
25/03:00pm 27.4 NNW 12 17 1007.2 - 0.0 - Mostly clear 10 - - - -
25/02:30pm 28.0 NNW 12 18 1007.5 - 0.0 - - 10 - - - -
25/02:00pm 28.1 NNW 13 18 1007.4 - 0.0 - - 10 - - - -
25/01:30pm 28.0 NNW 14 20 1007.9 - 0.0 - - 10 - - - -
25/01:00pm 28.4 NNW 13 19 1008.0 - 0.0 - Partly cloudy 10 - - - -
25/12:30pm 28.7 NNW 13 18 1008.5 - 0.0 - - 10 - - - -
25/12:00pm 28.1 NNW 12 18 1009.1 - 0.0 - - 10 - - - -
25/11:30am 27.9 NNW 11 16 1009.3 - 0.0 - Partly cloudy 10 - - - -
25/11:00am 28.3 NNW 11 18 1009.8 - 0.0 - Partly cloudy 10 - - - -
25/10:30am 27.5 NNW 10 18 1010.3 - 0.0 - Partly cloudy 10 - - - -
25/10:00am 26.8 NW 10 16 1010.4 - 0.0 - Partly cloudy 10 - - - -
25/09:30am 26.4 NNW 13 18 1010.5 - 0.0 - Partly cloudy 10 - - - -
25/09:00am 25.4 NNW 10 16 1010.8 - 0.0 - Cloudy 10 - - - -
25/08:30am 25.0 NNW 10 20 1010.9 - 0.0 - Partly cloudy 10 - - - -
25/08:00am 25.1 NNW 12 19 1010.6 - 0.0 - Partly cloudy 10 - - - -
25/07:30am 24.4 NNW 11 19 1010.8 - 0.0 - Partly cloudy 10 - - - -
25/07:00am 24.3 NNW 10 16 1010.6 - 0.0 - Partly cloudy 10 - - - -
25/06:30am 23.4 NNW 6 11 1010.2 - 0.0 - Partly cloudy 10 - - - -
25/06:00am 23.1 NNW 7 11 1009.7 - 0.0 - Cloudy 10 - - - -
25/05:30am 23.2 NNW 7 12 1009.4 - 0.0 - Partly cloudy 10 - - - -
25/05:00am 23.0 NNW 6 9 1009.4 - 0.0 - Partly cloudy 10 - - - -
25/04:30am 22.9 NNW 7 12 1009.0 - 0.0 - Partly cloudy 10 - - - -
25/04:00am 23.0 NNW 9 13 1008.8 - 0.0 - Partly cloudy 10 - - - -
25/03:30am 22.9 NNW 9 15 1008.5 - 0.0 - Partly cloudy 10 - - - -
25/03:00am 23.0 NNW 9 13 1008.8 - 0.0 - Cloudy 10 - - - -
25/02:30am 22.6 NNW 8 12 1009.0 - 0.0 - Partly cloudy 10 - - - -
25/02:00am 22.8 N 8 13 1009.0 - 0.0 - Partly cloudy 10 - - - -
25/01:35am 22.9 NNW 7 12 1009.1 - 0.0 - Partly cloudy 10 - - - -
25/01:30am 23.0 NNW 7 10 1009.3 - 0.0 - Partly cloudy 10 - - - -
25/01:12am 22.9 N 7 14 1009.4 - 0.0 - Partly cloudy 5 - - - -
25/01:00am 22.9 N 9 14 1009.4 - 0.0 - Partly cloudy 10 - - - -
25/12:30am 22.6 N 7 12 1010.0 - 0.0 - Partly cloudy 10 - - - -
25/12:00am 21.5 N 4 5 1010.4 - 0.0 - Cloudy 10 - - - -
 
Date/Time
EST
Temp
°C
Wind Pressure Rain since
9am
mm
Weather Cloud Vis
km
Sea
Height
m
Swell
Dir  Spd
kts
Gust
kts
hPa Trend Height
m
Period
s
Dir
24/11:30pm 20.8 CALM 0 0 1010.5 - 0.0 - Partly cloudy 10 - - - -
24/11:00pm 20.7 NNE 3 4 1010.5 - 0.0 - Partly cloudy 10 - - - -
24/10:30pm 21.3 N 5 5 1010.5 - 0.0 - Partly cloudy 10 - - - -
24/10:00pm 20.9 N 4 7 1010.6 - 0.0 - Partly cloudy 10 - - - -
24/09:30pm 21.1 CALM 0 0 1010.7 - 0.0 - - 10 - - - -
24/09:00pm 21.6 N 4 6 1010.4 - 0.0 - - 10 - - - -
24/08:30pm 21.9 N 4 5 1010.4 - 0.0 - - 10 - - - -
24/08:00pm 22.3 N 5 6 1010.0 - 0.0 - - 10 - - - -
24/07:30pm 22.6 N 4 5 1010.0 - 0.0 - Partly cloudy 10 - - - -
24/07:00pm 23.4 N 5 7 1009.8 - 0.0 - Partly cloudy 10 - - - -

Other Formats:

Comma delimited format used in spreadsheet applications
http://www.bom.gov.au/fwo/IDQ60701/IDQ60701.94370.axf

JavaScript Object Notation format (JSON) in row-major order
http://www.bom.gov.au/fwo/IDQ60701/IDQ60701.94370.json